Terminal Aerodrome Forecast
Issued by NWS

Home | Current Version | Previous Version | Text Only | Print | Product List | Glossary On
Versions: 1 2 3 4 5 6 7 8 9 10 11 12 13 14 15 16 17
000
FTUS42 KMLB 191218 AAA
TAFFPR
TAF AMD
KFPR 191218Z 1912/2012 26003KT 6SM BR SCT010 BKN013
      TEMPO 1912/1914 BKN010 OVC013
     FM191400 29008KT P6SM SCT010 BKN025
     FM191800 33011KT P6SM SCT030
     FM192100 02010KT P6SM SCT030
     FM200200 04003KT P6SM SKC=

USA.gov is the U.S. government's official web portal to all federal, state and local government web resources and services.